createdAt,value
2023-01-29T00:01:47.124Z,4.67
2023-01-29T00:04:13.735Z,5.17
2023-01-29T00:06:40.337Z,6.33
2023-01-29T00:09:06.990Z,7.20
2023-01-29T00:11:33.563Z,4.17
2023-01-29T00:14:00.156Z,6.10
2023-01-29T00:16:26.706Z,4.90
2023-01-29T00:18:53.281Z,5.87
2023-01-29T00:24:05.655Z,5.50
2023-01-29T00:29:17.903Z,4.83
2023-01-29T00:31:45.113Z,4.03
2023-01-29T00:34:11.827Z,4.30
2023-01-29T00:36:38.411Z,5.73
2023-01-29T00:39:10.805Z,7.07
2023-01-29T00:41:56.353Z,5.00
2023-01-29T00:44:41.427Z,8.57
2023-01-29T00:47:28.062Z,3.70
2023-01-29T00:52:41.056Z,10.07
2023-01-29T00:55:07.988Z,9.70
2023-01-29T00:57:34.904Z,6.10
2023-01-29T01:00:01.812Z,5.80
2023-01-29T01:05:31.308Z,6.10
2023-01-29T01:10:42.307Z,8.33
2023-01-29T01:15:53.092Z,9.33
2023-01-29T01:21:06.492Z,5.23
2023-01-29T01:26:17.206Z,10.43
2023-01-29T01:28:44.107Z,8.10
2023-01-29T01:31:11.138Z,4.93
2023-01-29T01:33:38.007Z,12.13
2023-01-29T01:38:49.258Z,10.07
2023-01-29T02:18:52.093Z,7.20
2023-01-29T02:21:54.948Z,7.63
2023-01-29T02:24:22.488Z,5.13
2023-01-29T02:26:52.045Z,7.80
2023-01-29T02:29:25.275Z,5.70
2023-01-29T02:31:57.158Z,8.27
2023-01-29T02:37:13.976Z,5.03
2023-01-29T02:39:43.419Z,11.37
2023-01-29T02:42:14.793Z,10.40
2023-01-29T02:47:36.159Z,6.33
2023-01-29T02:50:13.310Z,14.37
2023-01-29T02:52:39.982Z,11.30
2023-01-29T02:55:08.770Z,7.40
2023-01-29T03:00:21.870Z,9.43
2023-01-29T03:05:37.159Z,12.00
2023-01-29T03:08:04.813Z,6.10
2023-01-29T03:10:38.151Z,13.37
2023-01-29T03:13:07.951Z,11.17
2023-01-29T03:15:39.073Z,13.03
2023-01-29T03:21:41.956Z,11.67
2023-01-29T03:24:29.810Z,9.63
2023-01-29T03:27:16.525Z,8.17
2023-01-29T03:30:03.259Z,6.87
2023-01-29T03:32:51.355Z,9.27
2023-01-29T03:35:24.585Z,8.07
2023-01-29T03:37:51.148Z,11.00
2023-01-29T03:40:18.273Z,10.33
2023-01-29T03:45:54.806Z,4.83
2023-01-29T03:51:51.855Z,11.73
2023-01-29T03:57:31.404Z,7.93
2023-01-29T04:03:02.596Z,11.27
2023-01-29T04:08:27.068Z,14.33
2023-01-29T04:13:40.083Z,9.90
2023-01-29T04:19:13.915Z,10.17
2023-01-29T04:21:42.461Z,12.40
2023-01-29T04:24:09.132Z,12.43
2023-01-29T04:29:30.233Z,11.73
2023-01-29T04:34:54.790Z,8.13
2023-01-29T04:37:28.502Z,12.53
2023-01-29T04:39:56.689Z,7.77
2023-01-29T04:42:23.240Z,13.50
2023-01-29T04:45:15.948Z,8.03
2023-01-29T04:48:01.358Z,8.17
2023-01-29T04:50:29.347Z,10.73
2023-01-29T04:52:56.578Z,10.10
2023-01-29T04:55:29.050Z,7.47
2023-01-29T04:58:03.048Z,9.27
2023-01-29T05:00:37.061Z,8.50
2023-01-29T05:03:04.066Z,4.57
2023-01-29T05:05:30.654Z,12.97
2023-01-29T05:07:57.305Z,8.63
2023-01-29T05:13:08.831Z,13.00
2023-01-29T05:15:36.869Z,11.57
2023-01-29T05:18:04.293Z,10.87
2023-01-29T05:20:31.666Z,9.77
2023-01-29T05:25:42.061Z,7.73
2023-01-29T05:31:00.653Z,9.33
2023-01-29T05:33:27.975Z,9.13
2023-01-29T05:35:55.320Z,8.70
2023-01-29T05:38:22.118Z,10.20
2023-01-29T05:40:48.755Z,10.00
2023-01-29T05:43:24.753Z,10.13
2023-01-29T05:48:38.901Z,8.27
2023-01-29T05:51:05.583Z,7.47
2023-01-29T05:53:32.226Z,7.13
2023-01-29T05:56:00.841Z,10.90
2023-01-29T06:01:11.472Z,9.53
2023-01-29T06:03:42.312Z,11.80
2023-01-29T06:06:09.220Z,12.63
2023-01-29T06:08:35.818Z,12.90
2023-01-29T06:11:02.497Z,16.57
2023-01-29T06:13:29.084Z,14.50
2023-01-29T06:15:55.741Z,14.87
2023-01-29T06:18:22.341Z,10.93
2023-01-29T06:20:48.882Z,15.37
2023-01-29T06:23:15.423Z,15.50
2023-01-29T06:28:25.840Z,17.27
2023-01-29T06:33:39.125Z,14.60
2023-01-29T06:36:06.171Z,15.07
2023-01-29T06:38:32.861Z,15.00
2023-01-29T06:40:59.560Z,15.53
2023-01-29T06:46:10.170Z,17.40
2023-01-29T06:48:36.925Z,13.60
2023-01-29T06:51:04.225Z,18.13
2023-01-29T06:53:31.100Z,11.13
2023-01-29T06:55:57.882Z,20.10
2023-01-29T06:58:24.450Z,11.20
2023-01-29T07:00:51.406Z,17.10
2023-01-29T07:03:18.068Z,13.30
2023-01-29T07:05:50.379Z,14.23
2023-01-29T07:08:17.123Z,14.97
2023-01-29T07:10:43.745Z,8.37
2023-01-29T07:13:10.584Z,9.53
2023-01-29T07:18:21.898Z,7.23
2023-01-29T07:20:48.638Z,14.90
2023-01-29T07:23:15.467Z,11.57
2023-01-29T07:25:42.118Z,10.07
2023-01-29T07:28:08.796Z,10.30
2023-01-29T07:30:35.551Z,8.20
2023-01-29T07:33:02.951Z,11.37
2023-01-29T07:35:29.712Z,9.93
2023-01-29T07:37:56.587Z,15.40
2023-01-29T07:40:23.154Z,11.33
2023-01-29T07:45:34.670Z,13.80
2023-01-29T07:48:01.362Z,8.93
2023-01-29T07:50:28.052Z,13.50
2023-01-29T07:52:54.867Z,12.30
2023-01-29T07:55:21.581Z,12.50
2023-01-29T07:57:48.433Z,13.07
2023-01-29T08:00:15.624Z,7.77
2023-01-29T08:02:42.850Z,12.13
2023-01-29T08:05:09.509Z,15.03
2023-01-29T08:07:36.163Z,10.67
2023-01-29T08:10:02.889Z,10.70
2023-01-29T08:12:29.823Z,12.57
2023-01-29T08:14:56.776Z,11.20
2023-01-29T08:17:23.386Z,10.10
2023-01-29T08:19:50.011Z,11.27
2023-01-29T08:22:16.712Z,12.07
2023-01-29T08:24:53.861Z,9.43
2023-01-29T08:27:26.814Z,13.50
2023-01-29T08:29:53.450Z,12.83
2023-01-29T08:32:20.186Z,10.13
2023-01-29T08:34:47.074Z,9.10
2023-01-29T08:37:13.771Z,11.13
2023-01-29T08:39:43.423Z,14.77
2023-01-29T08:42:10.106Z,10.53
2023-01-29T08:44:36.743Z,13.37
2023-01-29T08:47:03.527Z,13.13
2023-01-29T08:49:30.115Z,9.90
2023-01-29T08:51:57.219Z,14.07
2023-01-29T08:54:23.939Z,12.17
2023-01-29T08:56:50.723Z,12.80
2023-01-29T08:59:17.544Z,13.70
2023-01-29T09:01:44.123Z,11.27
2023-01-29T09:04:10.713Z,15.03
2023-01-29T09:06:37.465Z,15.10
2023-01-29T09:09:04.517Z,6.40
2023-01-29T09:11:31.249Z,13.30
2023-01-29T09:13:57.892Z,13.23
2023-01-29T09:16:24.619Z,10.70
2023-01-29T09:18:51.267Z,9.73
2023-01-29T09:21:17.944Z,8.73
2023-01-29T09:23:47.084Z,13.77
2023-01-29T09:26:13.994Z,7.40
2023-01-29T09:31:25.023Z,6.93
2023-01-29T09:33:51.910Z,8.47
2023-01-29T09:36:18.537Z,9.07
2023-01-29T09:38:45.196Z,10.83
2023-01-29T09:44:00.598Z,7.50
2023-01-29T09:46:40.981Z,6.43
2023-01-29T09:49:11.733Z,5.10
2023-01-29T09:51:41.858Z,8.70
2023-01-29T09:54:18.854Z,9.33
2023-01-29T09:56:45.917Z,8.33
2023-01-29T09:59:14.843Z,5.93
2023-01-29T10:01:41.571Z,10.50
2023-01-29T10:04:23.433Z,9.40
2023-01-29T10:06:53.752Z,6.03
2023-01-29T10:09:39.316Z,8.13
2023-01-29T10:12:12.152Z,7.73
2023-01-29T10:14:48.630Z,7.30
2023-01-29T10:17:15.369Z,11.07
2023-01-29T10:19:47.961Z,7.57
2023-01-29T10:22:34.280Z,9.63
2023-01-29T10:25:01.861Z,4.97
2023-01-29T10:27:32.557Z,7.80
2023-01-29T10:32:43.818Z,7.93
2023-01-29T10:35:23.860Z,7.80
2023-01-29T10:37:52.227Z,7.17
2023-01-29T10:40:19.348Z,6.97
2023-01-29T10:43:12.684Z,5.07
2023-01-29T10:46:02.074Z,6.77
2023-01-29T10:48:36.639Z,5.30
2023-01-29T10:51:06.173Z,5.30
2023-01-29T10:53:53.155Z,7.43
2023-01-29T10:56:38.800Z,4.37
2023-01-29T10:59:24.008Z,5.07
2023-01-29T11:01:50.802Z,5.70
2023-01-29T11:04:17.933Z,7.47
2023-01-29T11:06:45.108Z,4.57
2023-01-29T11:09:11.940Z,6.10
2023-01-29T11:11:43.012Z,6.33
2023-01-29T11:14:11.202Z,6.60
2023-01-29T11:16:44.928Z,5.07
2023-01-29T11:19:11.700Z,7.27
2023-01-29T11:21:51.490Z,8.47
2023-01-29T11:24:18.883Z,7.07
2023-01-29T11:26:46.444Z,8.93
2023-01-29T11:29:32.772Z,7.20
2023-01-29T11:31:59.674Z,6.43
2023-01-29T11:34:31.181Z,5.93
2023-01-29T11:39:47.276Z,6.10
2023-01-29T11:42:20.948Z,6.70
2023-01-29T11:44:47.605Z,4.33
2023-01-29T11:47:17.276Z,4.80
2023-01-29T11:49:48.506Z,6.47
2023-01-29T11:52:15.865Z,5.17
2023-01-29T11:54:45.667Z,4.60
2023-01-29T11:57:31.191Z,5.93
2023-01-29T12:00:02.544Z,5.30
2023-01-29T12:02:38.605Z,5.70
2023-01-29T12:05:25.732Z,7.37
2023-01-29T12:07:53.811Z,4.90
2023-01-29T12:10:30.127Z,5.60
2023-01-29T12:13:07.388Z,6.73
2023-01-29T12:15:34.204Z,7.63
2023-01-29T12:18:20.318Z,3.70
2023-01-29T12:20:48.614Z,5.93
2023-01-29T12:23:34.188Z,7.20
2023-01-29T12:26:13.302Z,8.27
2023-01-29T12:28:45.360Z,8.07
2023-01-29T12:31:16.744Z,7.53
2023-01-29T12:33:49.589Z,7.13
2023-01-29T12:36:22.062Z,6.40
2023-01-29T12:38:48.772Z,6.30
2023-01-29T12:41:18.293Z,8.07
2023-01-29T12:43:50.984Z,3.97
2023-01-29T12:46:27.979Z,7.53
2023-01-29T12:48:55.477Z,5.47
2023-01-29T12:51:26.552Z,4.93
2023-01-29T12:54:06.181Z,7.57
2023-01-29T12:56:37.131Z,5.07
2023-01-29T12:59:19.211Z,5.93
2023-01-29T13:01:48.501Z,6.13
2023-01-29T13:04:16.751Z,4.40
2023-01-29T13:06:45.448Z,4.87
2023-01-29T13:09:13.266Z,7.93
2023-01-29T13:11:41.181Z,4.80
2023-01-29T13:14:20.218Z,5.40
2023-01-29T13:16:47.997Z,6.00
2023-01-29T13:19:31.800Z,6.43
2023-01-29T13:21:59.778Z,6.73
2023-01-29T13:24:27.640Z,4.97
2023-01-29T13:26:54.269Z,5.03
2023-01-29T13:29:21.056Z,6.30
2023-01-29T13:31:50.349Z,7.23
2023-01-29T13:34:20.312Z,6.10
2023-01-29T13:36:48.111Z,6.67
2023-01-29T13:39:23.040Z,6.20
2023-01-29T13:41:49.929Z,7.27
2023-01-29T13:44:26.964Z,7.70
2023-01-29T13:46:58.051Z,10.50
2023-01-29T13:49:26.120Z,6.70
2023-01-29T13:51:53.081Z,6.47
2023-01-29T13:54:21.319Z,6.40
2023-01-29T13:56:53.989Z,6.97
2023-01-29T13:59:21.340Z,5.43
2023-01-29T14:01:48.121Z,7.83
2023-01-29T14:04:25.608Z,8.87
2023-01-29T14:06:53.075Z,5.87
2023-01-29T14:12:22.576Z,6.80
2023-01-29T14:14:49.392Z,7.83
2023-01-29T14:17:16.513Z,3.23
2023-01-29T14:19:53.299Z,6.60
2023-01-29T14:22:20.721Z,7.00
2023-01-29T14:24:47.405Z,6.87
2023-01-29T14:27:21.155Z,4.90
2023-01-29T14:29:47.900Z,7.27
2023-01-29T14:32:25.179Z,7.07
2023-01-29T14:35:00.058Z,8.47
2023-01-29T14:37:26.776Z,9.23
2023-01-29T14:39:54.432Z,5.27
2023-01-29T14:42:33.672Z,7.53
2023-01-29T14:45:01.372Z,6.20
2023-01-29T14:47:28.126Z,5.87
2023-01-29T14:49:54.877Z,6.73
2023-01-29T14:52:36.366Z,8.03
2023-01-29T14:55:04.137Z,6.03
2023-01-29T14:57:30.688Z,6.53
2023-01-29T14:59:59.589Z,4.67
2023-01-29T15:02:27.752Z,5.30
2023-01-29T15:04:56.034Z,7.47
2023-01-29T15:07:27.659Z,7.60
2023-01-29T15:10:01.318Z,5.67
2023-01-29T15:12:36.564Z,6.30
2023-01-29T15:15:08.435Z,11.53
2023-01-29T15:17:40.826Z,8.43
2023-01-29T15:20:26.045Z,8.10
2023-01-29T15:22:52.820Z,6.80
2023-01-29T15:25:21.660Z,6.47
2023-01-29T15:27:48.687Z,7.37
2023-01-29T15:30:20.994Z,6.57
2023-01-29T15:32:47.849Z,8.47
2023-01-29T15:35:17.976Z,6.27
2023-01-29T15:37:45.288Z,5.53
2023-01-29T15:40:12.711Z,6.47
2023-01-29T15:42:46.811Z,11.60
2023-01-29T15:45:23.890Z,8.93
2023-01-29T15:47:50.683Z,5.33
2023-01-29T15:50:17.420Z,9.50
2023-01-29T15:52:46.043Z,11.50
2023-01-29T15:55:12.882Z,9.50
2023-01-29T15:57:41.296Z,7.90
2023-01-29T16:00:08.889Z,6.00
2023-01-29T16:05:26.823Z,6.37
2023-01-29T16:07:53.988Z,8.03
2023-01-29T16:10:21.446Z,11.10
2023-01-29T16:12:51.593Z,7.03
2023-01-29T16:15:24.267Z,4.47
2023-01-29T16:17:52.016Z,8.00
2023-01-29T16:20:31.375Z,7.73
2023-01-29T16:22:58.538Z,6.83
2023-01-29T16:25:25.169Z,8.07
2023-01-29T16:27:51.877Z,7.03
2023-01-29T16:30:18.693Z,6.57
2023-01-29T16:32:45.421Z,8.97
2023-01-29T16:38:02.782Z,7.80
2023-01-29T16:43:17.691Z,8.87
2023-01-29T16:45:55.606Z,10.70
2023-01-29T16:48:31.239Z,6.77
2023-01-29T16:51:05.370Z,8.43
2023-01-29T16:53:32.267Z,5.80
2023-01-29T16:56:05.895Z,6.50
2023-01-29T16:58:32.773Z,9.83
2023-01-29T17:01:08.053Z,8.30
2023-01-29T17:03:34.929Z,6.50
2023-01-29T17:09:03.558Z,7.43
2023-01-29T17:11:36.962Z,5.13
2023-01-29T17:14:04.219Z,9.83
2023-01-29T17:16:32.058Z,10.43
2023-01-29T17:21:43.989Z,6.20
2023-01-29T17:24:10.731Z,6.70
2023-01-29T17:26:38.848Z,4.67
2023-01-29T17:29:05.453Z,7.60
2023-01-29T17:34:16.686Z,5.07
2023-01-29T17:36:43.544Z,6.83
2023-01-29T17:39:23.443Z,8.93
2023-01-29T17:41:51.297Z,7.73
2023-01-29T17:44:18.151Z,5.57
2023-01-29T17:46:44.901Z,6.33
2023-01-29T17:51:59.074Z,6.33
2023-01-29T17:54:25.858Z,9.23
2023-01-29T17:56:53.439Z,5.47
2023-01-29T17:59:23.476Z,7.07
2023-01-29T18:01:50.787Z,6.13
2023-01-29T18:04:19.341Z,5.23
2023-01-29T18:06:47.112Z,8.83
2023-01-29T18:09:14.471Z,8.57
2023-01-29T18:11:41.748Z,8.93
2023-01-29T18:14:14.473Z,6.03
2023-01-29T18:16:44.845Z,8.70
2023-01-29T18:19:14.912Z,8.43
2023-01-29T18:21:41.735Z,8.17
2023-01-29T18:24:08.512Z,7.13
2023-01-29T18:26:36.025Z,7.50
2023-01-29T18:29:03.279Z,9.03
2023-01-29T18:31:30.495Z,10.43
2023-01-29T18:33:57.274Z,10.13
2023-01-29T18:36:24.118Z,11.77
2023-01-29T18:38:50.940Z,7.77
2023-01-29T18:41:17.997Z,9.47
2023-01-29T18:43:46.149Z,8.27
2023-01-29T18:46:13.145Z,9.77
2023-01-29T18:48:41.740Z,9.47
2023-01-29T18:51:09.380Z,5.67
2023-01-29T18:56:20.440Z,7.13
2023-01-29T18:58:52.302Z,9.00
2023-01-29T19:01:22.140Z,7.03
2023-01-29T19:03:48.865Z,8.63
2023-01-29T19:06:15.522Z,10.13
2023-01-29T19:08:43.177Z,10.30
2023-01-29T19:11:12.658Z,10.10
2023-01-29T19:13:40.547Z,12.60
2023-01-29T19:16:08.260Z,10.20
2023-01-29T19:18:35.203Z,6.33
2023-01-29T19:21:05.560Z,11.70
2023-01-29T19:23:32.218Z,8.83
2023-01-29T19:28:43.644Z,11.00
2023-01-29T19:31:11.113Z,8.63
2023-01-29T19:33:39.040Z,8.37
2023-01-29T19:36:06.034Z,9.83
2023-01-29T19:38:35.073Z,7.73
2023-01-29T19:41:02.918Z,14.33
2023-01-29T19:43:31.048Z,9.13
2023-01-29T19:46:04.195Z,11.00
2023-01-29T19:48:30.895Z,10.17
2023-01-29T19:50:58.262Z,9.10
2023-01-29T19:53:25.365Z,8.90
2023-01-29T19:56:02.213Z,12.23
2023-01-29T20:01:17.417Z,11.10
2023-01-29T20:03:46.655Z,10.83
2023-01-29T20:06:16.656Z,12.40
2023-01-29T20:08:47.837Z,14.93
2023-01-29T20:11:14.767Z,7.80
2023-01-29T20:13:41.455Z,13.50
2023-01-29T20:16:08.807Z,13.00
2023-01-29T20:18:35.639Z,14.67
2023-01-29T20:21:05.976Z,13.23
2023-01-29T20:23:38.241Z,10.57
2023-01-29T20:26:10.117Z,12.83
2023-01-29T20:28:38.369Z,7.83
2023-01-29T20:31:05.671Z,9.33
2023-01-29T20:33:34.680Z,7.80
2023-01-29T20:38:48.275Z,9.23
2023-01-29T20:41:19.422Z,8.07
2023-01-29T20:43:47.455Z,7.37
2023-01-29T20:48:57.200Z,7.47
2023-01-29T20:51:24.196Z,11.17
2023-01-29T20:53:51.059Z,9.03
2023-01-29T20:56:32.024Z,10.63
2023-01-29T20:59:05.014Z,9.07
2023-01-29T21:04:19.690Z,10.83
2023-01-29T21:06:47.111Z,10.83
2023-01-29T21:09:16.168Z,8.67
2023-01-29T21:11:45.113Z,10.57
2023-01-29T21:14:11.878Z,9.17
2023-01-29T21:16:38.813Z,15.17
2023-01-29T21:19:05.758Z,7.10
2023-01-29T21:21:32.593Z,14.17
2023-01-29T21:23:59.323Z,11.53
2023-01-29T21:26:26.096Z,10.53
2023-01-29T21:28:53.123Z,13.00
2023-01-29T21:31:20.505Z,15.53
2023-01-29T21:33:47.567Z,9.90
2023-01-29T21:36:15.461Z,9.87
2023-01-29T21:38:43.079Z,20.47
2023-01-29T21:41:10.877Z,16.00
2023-01-29T21:43:37.740Z,9.47
2023-01-29T21:46:05.247Z,9.40
2023-01-29T21:48:32.120Z,16.47
2023-01-29T21:50:58.850Z,15.10
2023-01-29T21:53:25.654Z,12.47
2023-01-29T21:55:52.303Z,13.47
2023-01-29T21:58:20.883Z,19.53
2023-01-29T22:00:48.951Z,17.23
2023-01-29T22:03:15.738Z,16.73
2023-01-29T22:05:42.421Z,14.70
2023-01-29T22:08:09.710Z,16.57
2023-01-29T22:10:36.656Z,21.77
2023-01-29T22:13:03.430Z,17.57
2023-01-29T22:15:30.078Z,13.63
2023-01-29T22:17:56.717Z,17.40
2023-01-29T22:20:30.111Z,19.73
2023-01-29T22:22:58.422Z,11.33
2023-01-29T22:25:25.271Z,20.23
2023-01-29T22:27:51.978Z,13.03
2023-01-29T22:30:18.923Z,21.77
2023-01-29T22:32:45.684Z,13.33
2023-01-29T22:35:12.312Z,18.67
2023-01-29T22:37:38.976Z,18.30
2023-01-29T22:40:06.069Z,21.00
2023-01-29T22:42:32.850Z,11.70
2023-01-29T22:44:59.549Z,14.93
2023-01-29T22:47:26.206Z,20.53
2023-01-29T22:52:42.508Z,12.50
2023-01-29T22:55:09.672Z,11.43
2023-01-29T22:57:36.521Z,11.63
2023-01-29T23:00:04.973Z,16.77
2023-01-29T23:02:31.590Z,13.90
2023-01-29T23:04:58.302Z,16.83
2023-01-29T23:07:24.951Z,13.07
2023-01-29T23:12:35.672Z,13.50
2023-01-29T23:15:02.303Z,16.80
2023-01-29T23:17:28.925Z,14.63
2023-01-29T23:19:55.493Z,16.57
2023-01-29T23:22:22.088Z,13.83
2023-01-29T23:24:48.734Z,14.87
2023-01-29T23:27:15.366Z,16.53
2023-01-29T23:29:42.857Z,13.13
2023-01-29T23:32:09.582Z,15.03
2023-01-29T23:34:36.251Z,10.83
2023-01-29T23:37:02.948Z,15.10
2023-01-29T23:39:29.543Z,16.10
2023-01-29T23:41:56.148Z,16.00
2023-01-29T23:44:22.767Z,19.17
2023-01-29T23:46:49.408Z,17.77
2023-01-29T23:49:16.301Z,17.43
2023-01-29T23:54:27.242Z,24.87
2023-01-29T23:56:53.841Z,16.33
2023-01-29T23:59:20.597Z,18.63
